sensor_id;sensor_type;location;lat;lon;timestamp;P1;durP1;ratioP1;P2;durP2;ratioP2
13108;SDS011;6620;53.734;11.510;2022-07-29T00:01:57;3.97;;;1.80;;
13108;SDS011;6620;53.734;11.510;2022-07-29T00:04:22;2.47;;;1.70;;
13108;SDS011;6620;53.734;11.510;2022-07-29T00:06:48;4.43;;;1.80;;
13108;SDS011;6620;53.734;11.510;2022-07-29T00:09:13;4.53;;;1.97;;
13108;SDS011;6620;53.734;11.510;2022-07-29T00:11:38;7.03;;;2.17;;
13108;SDS011;6620;53.734;11.510;2022-07-29T00:14:03;2.30;;;1.35;;
13108;SDS011;6620;53.734;11.510;2022-07-29T00:16:28;4.10;;;1.60;;
13108;SDS011;6620;53.734;11.510;2022-07-29T00:18:53;7.20;;;1.83;;
13108;SDS011;6620;53.734;11.510;2022-07-29T00:21:19;4.40;;;1.70;;
13108;SDS011;6620;53.734;11.510;2022-07-29T00:23:44;4.28;;;2.22;;
13108;SDS011;6620;53.734;11.510;2022-07-29T00:26:09;3.40;;;1.67;;
13108;SDS011;6620;53.734;11.510;2022-07-29T00:28:34;5.10;;;1.52;;
13108;SDS011;6620;53.734;11.510;2022-07-29T00:31:00;3.38;;;1.65;;
13108;SDS011;6620;53.734;11.510;2022-07-29T00:33:25;7.15;;;1.80;;
13108;SDS011;6620;53.734;11.510;2022-07-29T00:35:50;4.13;;;1.90;;
13108;SDS011;6620;53.734;11.510;2022-07-29T00:38:17;3.55;;;1.85;;
13108;SDS011;6620;53.734;11.510;2022-07-29T00:40:43;7.35;;;2.55;;
13108;SDS011;6620;53.734;11.510;2022-07-29T00:43:08;2.53;;;1.48;;
13108;SDS011;6620;53.734;11.510;2022-07-29T00:45:33;3.88;;;1.55;;
13108;SDS011;6620;53.734;11.510;2022-07-29T00:47:59;4.93;;;1.80;;
13108;SDS011;6620;53.734;11.510;2022-07-29T00:50:24;3.30;;;1.90;;
13108;SDS011;6620;53.734;11.510;2022-07-29T00:52:49;2.72;;;1.55;;
13108;SDS011;6620;53.734;11.510;2022-07-29T00:55:15;4.60;;;1.75;;
13108;SDS011;6620;53.734;11.510;2022-07-29T00:57:41;3.88;;;1.63;;
13108;SDS011;6620;53.734;11.510;2022-07-29T01:00:07;5.10;;;1.90;;
13108;SDS011;6620;53.734;11.510;2022-07-29T01:02:34;5.30;;;2.42;;
13108;SDS011;6620;53.734;11.510;2022-07-29T01:04:59;3.88;;;1.95;;
13108;SDS011;6620;53.734;11.510;2022-07-29T01:07:25;5.53;;;2.03;;
13108;SDS011;6620;53.734;11.510;2022-07-29T01:09:51;4.05;;;1.83;;
13108;SDS011;6620;53.734;11.510;2022-07-29T01:12:17;4.65;;;2.03;;
13108;SDS011;6620;53.734;11.510;2022-07-29T01:14:44;7.53;;;2.20;;
13108;SDS011;6620;53.734;11.510;2022-07-29T01:22:27;3.00;;;1.92;;
13108;SDS011;6620;53.734;11.510;2022-07-29T01:30:22;5.32;;;2.00;;
13108;SDS011;6620;53.734;11.510;2022-07-29T01:32:50;8.38;;;1.58;;
13108;SDS011;6620;53.734;11.510;2022-07-29T01:35:23;6.78;;;2.05;;
13108;SDS011;6620;53.734;11.510;2022-07-29T01:38:09;4.28;;;1.85;;
13108;SDS011;6620;53.734;11.510;2022-07-29T01:40:37;3.30;;;1.77;;
13108;SDS011;6620;53.734;11.510;2022-07-29T01:43:06;5.05;;;1.38;;
13108;SDS011;6620;53.734;11.510;2022-07-29T01:45:38;4.65;;;2.20;;
13108;SDS011;6620;53.734;11.510;2022-07-29T01:48:06;5.50;;;2.30;;
13108;SDS011;6620;53.734;11.510;2022-07-29T01:50:40;3.67;;;1.90;;
13108;SDS011;6620;53.734;11.510;2022-07-29T01:53:09;7.00;;;2.40;;
13108;SDS011;6620;53.734;11.510;2022-07-29T02:01:41;4.07;;;1.70;;
13108;SDS011;6620;53.734;11.510;2022-07-29T02:04:07;4.65;;;1.75;;
13108;SDS011;6620;53.734;11.510;2022-07-29T02:06:34;2.88;;;2.08;;
13108;SDS011;6620;53.734;11.510;2022-07-29T02:09:02;4.15;;;1.92;;
13108;SDS011;6620;53.734;11.510;2022-07-29T02:11:29;4.82;;;2.45;;
13108;SDS011;6620;53.734;11.510;2022-07-29T02:13:55;3.10;;;1.73;;
13108;SDS011;6620;53.734;11.510;2022-07-29T02:16:21;3.55;;;1.85;;
13108;SDS011;6620;53.734;11.510;2022-07-29T02:18:47;6.18;;;1.75;;
13108;SDS011;6620;53.734;11.510;2022-07-29T02:21:15;6.80;;;1.80;;
13108;SDS011;6620;53.734;11.510;2022-07-29T02:23:44;4.63;;;1.60;;
13108;SDS011;6620;53.734;11.510;2022-07-29T02:26:09;3.10;;;1.45;;
13108;SDS011;6620;53.734;11.510;2022-07-29T02:28:35;5.97;;;2.10;;
13108;SDS011;6620;53.734;11.510;2022-07-29T02:31:01;6.70;;;2.08;;
13108;SDS011;6620;53.734;11.510;2022-07-29T02:33:27;4.50;;;1.70;;
13108;SDS011;6620;53.734;11.510;2022-07-29T02:35:54;4.80;;;1.90;;
13108;SDS011;6620;53.734;11.510;2022-07-29T02:38:20;4.22;;;1.70;;
13108;SDS011;6620;53.734;11.510;2022-07-29T02:41:08;4.22;;;1.85;;
13108;SDS011;6620;53.734;11.510;2022-07-29T02:43:36;2.88;;;1.63;;
13108;SDS011;6620;53.734;11.510;2022-07-29T02:46:02;3.80;;;1.50;;
13108;SDS011;6620;53.734;11.510;2022-07-29T02:48:34;5.15;;;1.65;;
13108;SDS011;6620;53.734;11.510;2022-07-29T02:51:03;6.00;;;2.00;;
13108;SDS011;6620;53.734;11.510;2022-07-29T02:53:29;4.80;;;1.95;;
13108;SDS011;6620;53.734;11.510;2022-07-29T02:55:59;5.22;;;1.80;;
13108;SDS011;6620;53.734;11.510;2022-07-29T02:58:27;4.55;;;1.85;;
13108;SDS011;6620;53.734;11.510;2022-07-29T03:00:53;4.85;;;2.33;;
13108;SDS011;6620;53.734;11.510;2022-07-29T03:03:18;7.55;;;1.73;;
13108;SDS011;6620;53.734;11.510;2022-07-29T03:05:44;5.55;;;1.55;;
13108;SDS011;6620;53.734;11.510;2022-07-29T03:08:10;5.85;;;1.73;;
13108;SDS011;6620;53.734;11.510;2022-07-29T03:10:36;3.58;;;1.98;;
13108;SDS011;6620;53.734;11.510;2022-07-29T03:13:02;5.68;;;1.77;;
13108;SDS011;6620;53.734;11.510;2022-07-29T03:15:28;4.68;;;1.70;;
13108;SDS011;6620;53.734;11.510;2022-07-29T03:17:54;5.40;;;1.48;;
13108;SDS011;6620;53.734;11.510;2022-07-29T03:23:07;2.20;;;1.30;;
13108;SDS011;6620;53.734;11.510;2022-07-29T03:25:33;4.18;;;1.77;;
13108;SDS011;6620;53.734;11.510;2022-07-29T03:27:58;5.40;;;1.60;;
13108;SDS011;6620;53.734;11.510;2022-07-29T03:30:23;5.18;;;1.90;;
13108;SDS011;6620;53.734;11.510;2022-07-29T03:32:49;5.67;;;1.77;;
13108;SDS011;6620;53.734;11.510;2022-07-29T03:35:15;3.83;;;1.63;;
13108;SDS011;6620;53.734;11.510;2022-07-29T03:37:41;9.05;;;1.60;;
13108;SDS011;6620;53.734;11.510;2022-07-29T03:40:07;3.17;;;1.45;;
13108;SDS011;6620;53.734;11.510;2022-07-29T03:42:32;5.93;;;1.52;;
13108;SDS011;6620;53.734;11.510;2022-07-29T03:44:59;3.80;;;1.30;;
13108;SDS011;6620;53.734;11.510;2022-07-29T03:47:27;3.60;;;1.45;;
13108;SDS011;6620;53.734;11.510;2022-07-29T03:49:54;3.63;;;1.38;;
13108;SDS011;6620;53.734;11.510;2022-07-29T03:52:21;4.45;;;1.70;;
13108;SDS011;6620;53.734;11.510;2022-07-29T03:54:47;2.05;;;1.27;;
13108;SDS011;6620;53.734;11.510;2022-07-29T03:57:12;3.22;;;1.65;;
13108;SDS011;6620;53.734;11.510;2022-07-29T03:59:37;1.77;;;1.33;;
13108;SDS011;6620;53.734;11.510;2022-07-29T04:02:04;4.70;;;1.40;;
13108;SDS011;6620;53.734;11.510;2022-07-29T04:04:32;1.90;;;1.10;;
13108;SDS011;6620;53.734;11.510;2022-07-29T04:06:57;4.22;;;1.25;;
13108;SDS011;6620;53.734;11.510;2022-07-29T04:09:22;3.22;;;1.48;;
13108;SDS011;6620;53.734;11.510;2022-07-29T04:11:48;2.45;;;1.17;;
13108;SDS011;6620;53.734;11.510;2022-07-29T04:14:13;4.60;;;1.75;;
13108;SDS011;6620;53.734;11.510;2022-07-29T04:16:38;5.28;;;1.67;;
13108;SDS011;6620;53.734;11.510;2022-07-29T04:19:03;6.50;;;1.67;;
13108;SDS011;6620;53.734;11.510;2022-07-29T04:21:29;2.40;;;1.30;;
13108;SDS011;6620;53.734;11.510;2022-07-29T04:23:54;6.40;;;1.50;;
13108;SDS011;6620;53.734;11.510;2022-07-29T04:26:19;2.43;;;1.53;;
13108;SDS011;6620;53.734;11.510;2022-07-29T04:28:45;7.95;;;1.60;;
13108;SDS011;6620;53.734;11.510;2022-07-29T04:31:10;3.97;;;1.45;;
13108;SDS011;6620;53.734;11.510;2022-07-29T04:36:23;6.80;;;1.98;;
13108;SDS011;6620;53.734;11.510;2022-07-29T04:38:48;3.27;;;1.67;;
13108;SDS011;6620;53.734;11.510;2022-07-29T04:41:13;6.00;;;1.57;;
13108;SDS011;6620;53.734;11.510;2022-07-29T04:43:39;3.50;;;1.65;;
13108;SDS011;6620;53.734;11.510;2022-07-29T04:46:05;6.72;;;1.77;;
13108;SDS011;6620;53.734;11.510;2022-07-29T04:48:31;5.45;;;1.52;;
13108;SDS011;6620;53.734;11.510;2022-07-29T04:50:56;5.10;;;1.60;;
13108;SDS011;6620;53.734;11.510;2022-07-29T04:53:21;2.08;;;1.17;;
13108;SDS011;6620;53.734;11.510;2022-07-29T04:55:47;4.88;;;1.73;;
13108;SDS011;6620;53.734;11.510;2022-07-29T04:58:12;4.70;;;1.50;;
13108;SDS011;6620;53.734;11.510;2022-07-29T05:00:37;2.43;;;1.23;;
13108;SDS011;6620;53.734;11.510;2022-07-29T05:03:03;2.83;;;1.37;;
13108;SDS011;6620;53.734;11.510;2022-07-29T05:05:28;20.38;;;3.72;;
13108;SDS011;6620;53.734;11.510;2022-07-29T05:07:53;2.83;;;1.08;;
13108;SDS011;6620;53.734;11.510;2022-07-29T05:10:19;4.40;;;2.00;;
13108;SDS011;6620;53.734;11.510;2022-07-29T05:12:44;4.40;;;1.30;;
13108;SDS011;6620;53.734;11.510;2022-07-29T05:15:09;4.90;;;1.30;;
13108;SDS011;6620;53.734;11.510;2022-07-29T05:17:34;3.65;;;1.52;;
13108;SDS011;6620;53.734;11.510;2022-07-29T05:20:00;5.00;;;2.20;;
13108;SDS011;6620;53.734;11.510;2022-07-29T05:22:25;5.35;;;1.38;;
13108;SDS011;6620;53.734;11.510;2022-07-29T05:24:50;1.77;;;1.20;;
13108;SDS011;6620;53.734;11.510;2022-07-29T05:27:15;4.57;;;1.42;;
13108;SDS011;6620;53.734;11.510;2022-07-29T05:29:41;4.20;;;1.95;;
13108;SDS011;6620;53.734;11.510;2022-07-29T05:32:06;2.65;;;1.30;;
13108;SDS011;6620;53.734;11.510;2022-07-29T05:34:31;3.47;;;1.23;;
13108;SDS011;6620;53.734;11.510;2022-07-29T05:36:57;3.38;;;1.58;;
13108;SDS011;6620;53.734;11.510;2022-07-29T05:39:22;6.50;;;1.50;;
13108;SDS011;6620;53.734;11.510;2022-07-29T05:41:47;6.80;;;1.42;;
13108;SDS011;6620;53.734;11.510;2022-07-29T05:44:12;6.28;;;1.48;;
13108;SDS011;6620;53.734;11.510;2022-07-29T05:46:38;4.20;;;1.40;;
13108;SDS011;6620;53.734;11.510;2022-07-29T05:49:04;3.25;;;1.17;;
13108;SDS011;6620;53.734;11.510;2022-07-29T05:51:31;5.07;;;1.90;;
13108;SDS011;6620;53.734;11.510;2022-07-29T05:53:56;6.05;;;1.67;;
13108;SDS011;6620;53.734;11.510;2022-07-29T05:56:21;5.97;;;1.70;;
13108;SDS011;6620;53.734;11.510;2022-07-29T05:58:46;4.80;;;1.57;;
13108;SDS011;6620;53.734;11.510;2022-07-29T06:01:12;1.80;;;1.30;;
13108;SDS011;6620;53.734;11.510;2022-07-29T06:03:37;3.97;;;1.50;;
13108;SDS011;6620;53.734;11.510;2022-07-29T06:06:03;3.25;;;1.25;;
13108;SDS011;6620;53.734;11.510;2022-07-29T06:08:28;6.20;;;1.95;;
13108;SDS011;6620;53.734;11.510;2022-07-29T06:10:53;7.93;;;2.22;;
13108;SDS011;6620;53.734;11.510;2022-07-29T06:13:19;7.10;;;1.95;;
13108;SDS011;6620;53.734;11.510;2022-07-29T06:15:44;4.25;;;1.55;;
13108;SDS011;6620;53.734;11.510;2022-07-29T06:18:09;3.72;;;1.48;;
13108;SDS011;6620;53.734;11.510;2022-07-29T06:20:35;11.07;;;1.92;;
13108;SDS011;6620;53.734;11.510;2022-07-29T06:23:01;7.55;;;1.90;;
13108;SDS011;6620;53.734;11.510;2022-07-29T06:25:29;3.00;;;1.55;;
13108;SDS011;6620;53.734;11.510;2022-07-29T06:27:55;5.15;;;1.70;;
13108;SDS011;6620;53.734;11.510;2022-07-29T06:30:20;7.32;;;1.63;;
13108;SDS011;6620;53.734;11.510;2022-07-29T06:32:45;6.50;;;1.50;;
13108;SDS011;6620;53.734;11.510;2022-07-29T06:35:11;6.82;;;1.50;;
13108;SDS011;6620;53.734;11.510;2022-07-29T06:37:36;6.03;;;1.70;;
13108;SDS011;6620;53.734;11.510;2022-07-29T06:40:01;1.80;;;1.20;;
13108;SDS011;6620;53.734;11.510;2022-07-29T06:42:45;5.50;;;1.80;;
13108;SDS011;6620;53.734;11.510;2022-07-29T06:45:11;4.63;;;1.47;;
13108;SDS011;6620;53.734;11.510;2022-07-29T06:47:36;3.40;;;1.50;;
13108;SDS011;6620;53.734;11.510;2022-07-29T06:50:01;5.77;;;1.57;;
13108;SDS011;6620;53.734;11.510;2022-07-29T06:52:26;3.78;;;2.22;;
13108;SDS011;6620;53.734;11.510;2022-07-29T06:54:51;4.32;;;1.48;;
13108;SDS011;6620;53.734;11.510;2022-07-29T06:57:17;3.63;;;1.30;;
13108;SDS011;6620;53.734;11.510;2022-07-29T06:59:42;5.80;;;1.27;;
13108;SDS011;6620;53.734;11.510;2022-07-29T07:02:07;3.93;;;1.57;;
13108;SDS011;6620;53.734;11.510;2022-07-29T07:04:32;3.67;;;1.50;;
13108;SDS011;6620;53.734;11.510;2022-07-29T07:06:58;3.75;;;1.33;;
13108;SDS011;6620;53.734;11.510;2022-07-29T07:09:24;5.30;;;1.20;;
13108;SDS011;6620;53.734;11.510;2022-07-29T07:11:49;6.10;;;1.37;;
13108;SDS011;6620;53.734;11.510;2022-07-29T07:14:14;4.13;;;1.73;;
13108;SDS011;6620;53.734;11.510;2022-07-29T07:16:39;3.13;;;1.47;;
13108;SDS011;6620;53.734;11.510;2022-07-29T07:19:05;4.45;;;1.13;;
13108;SDS011;6620;53.734;11.510;2022-07-29T07:21:30;5.20;;;1.38;;
13108;SDS011;6620;53.734;11.510;2022-07-29T07:23:57;4.65;;;1.15;;
13108;SDS011;6620;53.734;11.510;2022-07-29T07:26:23;3.03;;;1.10;;
13108;SDS011;6620;53.734;11.510;2022-07-29T07:28:48;9.43;;;2.05;;
13108;SDS011;6620;53.734;11.510;2022-07-29T07:31:13;6.93;;;1.70;;
13108;SDS011;6620;53.734;11.510;2022-07-29T07:33:39;3.42;;;1.35;;
13108;SDS011;6620;53.734;11.510;2022-07-29T07:36:04;2.63;;;1.35;;
13108;SDS011;6620;53.734;11.510;2022-07-29T07:38:29;4.80;;;1.60;;
13108;SDS011;6620;53.734;11.510;2022-07-29T07:40:54;5.80;;;1.00;;
13108;SDS011;6620;53.734;11.510;2022-07-29T07:43:20;3.92;;;1.00;;
13108;SDS011;6620;53.734;11.510;2022-07-29T07:45:45;4.45;;;1.20;;
13108;SDS011;6620;53.734;11.510;2022-07-29T07:48:10;4.37;;;1.40;;
13108;SDS011;6620;53.734;11.510;2022-07-29T07:50:36;9.70;;;1.55;;
13108;SDS011;6620;53.734;11.510;2022-07-29T07:53:01;2.47;;;1.00;;
13108;SDS011;6620;53.734;11.510;2022-07-29T07:55:27;5.45;;;1.50;;
13108;SDS011;6620;53.734;11.510;2022-07-29T07:57:52;3.97;;;1.30;;
13108;SDS011;6620;53.734;11.510;2022-07-29T08:00:18;4.85;;;1.42;;
13108;SDS011;6620;53.734;11.510;2022-07-29T08:02:43;3.08;;;1.30;;
13108;SDS011;6620;53.734;11.510;2022-07-29T08:05:10;3.60;;;1.17;;
13108;SDS011;6620;53.734;11.510;2022-07-29T08:07:36;5.38;;;1.60;;
13108;SDS011;6620;53.734;11.510;2022-07-29T08:10:02;4.57;;;1.23;;
13108;SDS011;6620;53.734;11.510;2022-07-29T08:12:27;3.05;;;1.13;;
13108;SDS011;6620;53.734;11.510;2022-07-29T08:14:52;1.60;;;0.60;;
13108;SDS011;6620;53.734;11.510;2022-07-29T08:17:18;3.13;;;1.15;;
13108;SDS011;6620;53.734;11.510;2022-07-29T08:19:44;3.07;;;1.10;;
13108;SDS011;6620;53.734;11.510;2022-07-29T08:22:09;5.30;;;1.27;;
13108;SDS011;6620;53.734;11.510;2022-07-29T08:24:34;2.65;;;1.15;;
13108;SDS011;6620;53.734;11.510;2022-07-29T08:27:12;3.42;;;1.38;;
13108;SDS011;6620;53.734;11.510;2022-07-29T08:29:38;3.05;;;0.95;;
13108;SDS011;6620;53.734;11.510;2022-07-29T08:32:03;2.67;;;1.15;;
13108;SDS011;6620;53.734;11.510;2022-07-29T08:34:29;3.30;;;0.98;;
13108;SDS011;6620;53.734;11.510;2022-07-29T08:36:55;6.53;;;1.15;;
13108;SDS011;6620;53.734;11.510;2022-07-29T08:39:20;3.50;;;1.23;;
13108;SDS011;6620;53.734;11.510;2022-07-29T08:41:46;3.58;;;0.90;;
13108;SDS011;6620;53.734;11.510;2022-07-29T08:44:12;5.55;;;1.45;;
13108;SDS011;6620;53.734;11.510;2022-07-29T08:46:37;1.47;;;0.77;;
13108;SDS011;6620;53.734;11.510;2022-07-29T08:49:03;2.58;;;0.88;;
13108;SDS011;6620;53.734;11.510;2022-07-29T08:51:28;2.30;;;0.97;;
13108;SDS011;6620;53.734;11.510;2022-07-29T08:53:54;4.20;;;0.90;;
13108;SDS011;6620;53.734;11.510;2022-07-29T08:56:20;3.63;;;1.08;;
13108;SDS011;6620;53.734;11.510;2022-07-29T08:58:46;7.65;;;1.30;;
13108;SDS011;6620;53.734;11.510;2022-07-29T09:01:12;2.00;;;0.80;;
13108;SDS011;6620;53.734;11.510;2022-07-29T09:03:39;3.20;;;0.90;;
13108;SDS011;6620;53.734;11.510;2022-07-29T09:06:04;5.78;;;1.30;;
13108;SDS011;6620;53.734;11.510;2022-07-29T09:08:33;5.57;;;1.65;;
13108;SDS011;6620;53.734;11.510;2022-07-29T09:11:00;6.18;;;1.00;;
13108;SDS011;6620;53.734;11.510;2022-07-29T09:13:25;2.90;;;1.02;;
13108;SDS011;6620;53.734;11.510;2022-07-29T09:15:51;2.65;;;1.13;;
13108;SDS011;6620;53.734;11.510;2022-07-29T09:21:00;2.53;;;0.85;;
13108;SDS011;6620;53.734;11.510;2022-07-29T09:26:29;2.28;;;0.95;;
13108;SDS011;6620;53.734;11.510;2022-07-29T09:28:55;3.35;;;0.93;;
13108;SDS011;6620;53.734;11.510;2022-07-29T09:31:26;3.13;;;1.05;;
13108;SDS011;6620;53.734;11.510;2022-07-29T09:33:57;3.47;;;1.02;;
13108;SDS011;6620;53.734;11.510;2022-07-29T09:36:22;5.43;;;1.00;;
13108;SDS011;6620;53.734;11.510;2022-07-29T09:38:56;5.60;;;0.90;;
13108;SDS011;6620;53.734;11.510;2022-07-29T09:41:22;4.53;;;1.10;;
13108;SDS011;6620;53.734;11.510;2022-07-29T09:43:57;2.80;;;0.90;;
13108;SDS011;6620;53.734;11.510;2022-07-29T09:46:22;1.63;;;0.80;;
13108;SDS011;6620;53.734;11.510;2022-07-29T09:49:07;3.30;;;1.10;;
13108;SDS011;6620;53.734;11.510;2022-07-29T09:51:33;3.65;;;1.00;;
13108;SDS011;6620;53.734;11.510;2022-07-29T09:53:58;3.20;;;1.00;;
13108;SDS011;6620;53.734;11.510;2022-07-29T09:56:37;6.25;;;1.15;;
13108;SDS011;6620;53.734;11.510;2022-07-29T09:59:06;1.85;;;0.85;;
13108;SDS011;6620;53.734;11.510;2022-07-29T10:01:32;5.03;;;1.17;;
13108;SDS011;6620;53.734;11.510;2022-07-29T10:03:57;3.53;;;1.10;;
13108;SDS011;6620;53.734;11.510;2022-07-29T10:06:22;3.47;;;1.20;;
13108;SDS011;6620;53.734;11.510;2022-07-29T10:08:47;4.37;;;1.03;;
13108;SDS011;6620;53.734;11.510;2022-07-29T10:11:15;2.97;;;1.27;;
13108;SDS011;6620;53.734;11.510;2022-07-29T10:13:41;7.53;;;1.13;;
13108;SDS011;6620;53.734;11.510;2022-07-29T10:16:06;5.22;;;1.48;;
13108;SDS011;6620;53.734;11.510;2022-07-29T10:18:32;3.33;;;0.90;;
13108;SDS011;6620;53.734;11.510;2022-07-29T10:20:57;3.60;;;0.82;;
13108;SDS011;6620;53.734;11.510;2022-07-29T10:23:23;3.40;;;1.00;;
13108;SDS011;6620;53.734;11.510;2022-07-29T10:25:49;20.40;;;1.70;;
13108;SDS011;6620;53.734;11.510;2022-07-29T10:28:14;13.15;;;2.05;;
13108;SDS011;6620;53.734;11.510;2022-07-29T10:30:39;5.80;;;1.03;;
13108;SDS011;6620;53.734;11.510;2022-07-29T10:33:21;10.85;;;1.83;;
13108;SDS011;6620;53.734;11.510;2022-07-29T10:36:11;8.40;;;1.30;;
13108;SDS011;6620;53.734;11.510;2022-07-29T10:38:43;5.32;;;1.20;;
13108;SDS011;6620;53.734;11.510;2022-07-29T10:43:54;7.53;;;1.20;;
13108;SDS011;6620;53.734;11.510;2022-07-29T10:46:20;5.43;;;1.05;;
13108;SDS011;6620;53.734;11.510;2022-07-29T10:54:13;13.60;;;1.52;;
13108;SDS011;6620;53.734;11.510;2022-07-29T10:56:38;5.97;;;1.00;;
13108;SDS011;6620;53.734;11.510;2022-07-29T11:01:46;3.88;;;0.60;;
13108;SDS011;6620;53.734;11.510;2022-07-29T11:04:11;2.50;;;1.00;;
13108;SDS011;6620;53.734;11.510;2022-07-29T11:09:20;2.65;;;1.27;;
13108;SDS011;6620;53.734;11.510;2022-07-29T11:11:47;2.25;;;0.63;;
13108;SDS011;6620;53.734;11.510;2022-07-29T11:14:12;3.72;;;1.02;;
13108;SDS011;6620;53.734;11.510;2022-07-29T11:19:21;2.83;;;0.70;;
13108;SDS011;6620;53.734;11.510;2022-07-29T11:21:47;6.75;;;0.80;;
13108;SDS011;6620;53.734;11.510;2022-07-29T11:24:16;5.07;;;1.38;;
13108;SDS011;6620;53.734;11.510;2022-07-29T11:26:42;4.68;;;0.93;;
13108;SDS011;6620;53.734;11.510;2022-07-29T11:34:25;4.95;;;0.90;;
13108;SDS011;6620;53.734;11.510;2022-07-29T11:39:31;3.47;;;1.02;;
13108;SDS011;6620;53.734;11.510;2022-07-29T11:45:13;2.95;;;0.80;;
13108;SDS011;6620;53.734;11.510;2022-07-29T11:47:33;1.98;;;0.63;;
13108;SDS011;6620;53.734;11.510;2022-07-29T11:49:59;3.80;;;0.70;;
13108;SDS011;6620;53.734;11.510;2022-07-29T11:52:32;1.65;;;0.75;;
13108;SDS011;6620;53.734;11.510;2022-07-29T11:54:57;1.42;;;0.90;;
13108;SDS011;6620;53.734;11.510;2022-07-29T11:57:22;2.78;;;0.93;;
13108;SDS011;6620;53.734;11.510;2022-07-29T11:59:48;2.22;;;0.95;;
13108;SDS011;6620;53.734;11.510;2022-07-29T12:02:14;2.10;;;1.27;;
13108;SDS011;6620;53.734;11.510;2022-07-29T12:04:50;2.45;;;0.57;;
13108;SDS011;6620;53.734;11.510;2022-07-29T12:07:15;4.35;;;0.68;;
13108;SDS011;6620;53.734;11.510;2022-07-29T12:09:49;3.78;;;0.80;;
13108;SDS011;6620;53.734;11.510;2022-07-29T12:12:15;3.47;;;0.60;;
13108;SDS011;6620;53.734;11.510;2022-07-29T12:14:40;6.78;;;1.23;;
13108;SDS011;6620;53.734;11.510;2022-07-29T12:17:24;2.47;;;0.70;;
13108;SDS011;6620;53.734;11.510;2022-07-29T12:19:49;6.22;;;1.70;;
13108;SDS011;6620;53.734;11.510;2022-07-29T12:22:16;3.37;;;0.90;;
13108;SDS011;6620;53.734;11.510;2022-07-29T12:24:49;1.90;;;0.60;;
13108;SDS011;6620;53.734;11.510;2022-07-29T12:27:16;3.87;;;0.93;;
13108;SDS011;6620;53.734;11.510;2022-07-29T12:29:41;1.50;;;0.55;;
13108;SDS011;6620;53.734;11.510;2022-07-29T12:32:07;3.27;;;1.07;;
13108;SDS011;6620;53.734;11.510;2022-07-29T12:34:32;2.37;;;0.70;;
13108;SDS011;6620;53.734;11.510;2022-07-29T12:36:57;2.45;;;0.90;;
13108;SDS011;6620;53.734;11.510;2022-07-29T12:39:22;4.47;;;0.87;;
13108;SDS011;6620;53.734;11.510;2022-07-29T12:41:51;2.55;;;0.82;;
13108;SDS011;6620;53.734;11.510;2022-07-29T12:44:16;1.30;;;0.70;;
13108;SDS011;6620;53.734;11.510;2022-07-29T12:46:41;3.30;;;1.00;;
13108;SDS011;6620;53.734;11.510;2022-07-29T12:49:06;4.43;;;0.67;;
13108;SDS011;6620;53.734;11.510;2022-07-29T12:51:32;1.87;;;1.07;;
13108;SDS011;6620;53.734;11.510;2022-07-29T12:54:16;3.30;;;1.00;;
13108;SDS011;6620;53.734;11.510;2022-07-29T12:56:42;3.38;;;0.70;;
13108;SDS011;6620;53.734;11.510;2022-07-29T12:59:15;3.38;;;0.57;;
13108;SDS011;6620;53.734;11.510;2022-07-29T13:01:40;1.65;;;0.68;;
13108;SDS011;6620;53.734;11.510;2022-07-29T13:04:06;1.80;;;0.60;;
13108;SDS011;6620;53.734;11.510;2022-07-29T13:09:06;3.08;;;1.05;;
13108;SDS011;6620;53.734;11.510;2022-07-29T13:11:35;3.80;;;1.10;;
13108;SDS011;6620;53.734;11.510;2022-07-29T13:14:01;1.95;;;0.95;;
13108;SDS011;6620;53.734;11.510;2022-07-29T13:16:27;1.70;;;0.80;;
13108;SDS011;6620;53.734;11.510;2022-07-29T13:19:09;3.45;;;0.88;;
13108;SDS011;6620;53.734;11.510;2022-07-29T13:21:34;4.60;;;0.85;;
13108;SDS011;6620;53.734;11.510;2022-07-29T13:23:59;2.90;;;1.05;;
13108;SDS011;6620;53.734;11.510;2022-07-29T13:26:24;4.90;;;1.03;;
13108;SDS011;6620;53.734;11.510;2022-07-29T13:28:50;3.45;;;1.25;;
13108;SDS011;6620;53.734;11.510;2022-07-29T13:31:15;1.27;;;0.50;;
13108;SDS011;6620;53.734;11.510;2022-07-29T13:33:40;3.05;;;0.82;;
13108;SDS011;6620;53.734;11.510;2022-07-29T13:36:05;1.60;;;0.85;;
13108;SDS011;6620;53.734;11.510;2022-07-29T13:38:31;1.75;;;0.93;;
13108;SDS011;6620;53.734;11.510;2022-07-29T13:40:56;4.70;;;0.77;;
13108;SDS011;6620;53.734;11.510;2022-07-29T13:43:21;5.43;;;1.30;;
13108;SDS011;6620;53.734;11.510;2022-07-29T13:45:46;6.53;;;0.87;;
13108;SDS011;6620;53.734;11.510;2022-07-29T13:48:11;3.33;;;1.00;;
13108;SDS011;6620;53.734;11.510;2022-07-29T13:50:37;0.85;;;0.52;;
13108;SDS011;6620;53.734;11.510;2022-07-29T13:53:02;3.95;;;0.80;;
13108;SDS011;6620;53.734;11.510;2022-07-29T13:55:27;4.45;;;0.93;;
13108;SDS011;6620;53.734;11.510;2022-07-29T13:57:53;4.03;;;1.00;;
13108;SDS011;6620;53.734;11.510;2022-07-29T14:00:18;2.37;;;0.83;;
13108;SDS011;6620;53.734;11.510;2022-07-29T14:02:44;1.75;;;0.70;;
13108;SDS011;6620;53.734;11.510;2022-07-29T14:05:09;3.05;;;0.88;;
13108;SDS011;6620;53.734;11.510;2022-07-29T14:07:35;2.88;;;0.80;;
13108;SDS011;6620;53.734;11.510;2022-07-29T14:10:00;4.18;;;1.65;;
13108;SDS011;6620;53.734;11.510;2022-07-29T14:12:25;8.47;;;1.30;;
13108;SDS011;6620;53.734;11.510;2022-07-29T14:14:50;9.23;;;0.80;;
13108;SDS011;6620;53.734;11.510;2022-07-29T14:17:16;17.93;;;1.73;;
13108;SDS011;6620;53.734;11.510;2022-07-29T14:19:41;13.73;;;1.70;;
13108;SDS011;6620;53.734;11.510;2022-07-29T14:22:07;11.45;;;1.20;;
13108;SDS011;6620;53.734;11.510;2022-07-29T14:24:32;7.55;;;1.48;;
13108;SDS011;6620;53.734;11.510;2022-07-29T14:26:58;5.25;;;0.80;;
13108;SDS011;6620;53.734;11.510;2022-07-29T14:29:23;3.28;;;0.80;;
13108;SDS011;6620;53.734;11.510;2022-07-29T14:31:49;5.20;;;0.75;;
13108;SDS011;6620;53.734;11.510;2022-07-29T14:34:14;10.27;;;1.00;;
13108;SDS011;6620;53.734;11.510;2022-07-29T14:36:40;6.45;;;1.05;;
13108;SDS011;6620;53.734;11.510;2022-07-29T14:39:05;8.38;;;1.38;;
13108;SDS011;6620;53.734;11.510;2022-07-29T14:41:30;3.63;;;1.50;;
13108;SDS011;6620;53.734;11.510;2022-07-29T14:43:56;2.42;;;0.98;;
13108;SDS011;6620;53.734;11.510;2022-07-29T14:46:21;3.13;;;0.80;;
13108;SDS011;6620;53.734;11.510;2022-07-29T14:48:46;7.87;;;1.17;;
13108;SDS011;6620;53.734;11.510;2022-07-29T14:51:11;3.70;;;0.77;;
13108;SDS011;6620;53.734;11.510;2022-07-29T14:53:37;3.35;;;0.90;;
13108;SDS011;6620;53.734;11.510;2022-07-29T14:56:02;2.35;;;0.82;;
13108;SDS011;6620;53.734;11.510;2022-07-29T14:58:27;4.53;;;0.80;;
13108;SDS011;6620;53.734;11.510;2022-07-29T15:00:52;2.80;;;0.63;;
13108;SDS011;6620;53.734;11.510;2022-07-29T15:03:19;3.60;;;0.85;;
13108;SDS011;6620;53.734;11.510;2022-07-29T15:05:44;6.25;;;0.60;;
13108;SDS011;6620;53.734;11.510;2022-07-29T15:08:10;3.47;;;0.90;;
13108;SDS011;6620;53.734;11.510;2022-07-29T15:10:35;5.30;;;1.00;;
13108;SDS011;6620;53.734;11.510;2022-07-29T15:13:00;2.80;;;0.90;;
13108;SDS011;6620;53.734;11.510;2022-07-29T15:15:25;2.00;;;0.90;;
13108;SDS011;6620;53.734;11.510;2022-07-29T15:17:50;2.78;;;0.95;;
13108;SDS011;6620;53.734;11.510;2022-07-29T15:20:16;3.97;;;0.93;;
13108;SDS011;6620;53.734;11.510;2022-07-29T15:22:41;8.85;;;2.53;;
13108;SDS011;6620;53.734;11.510;2022-07-29T15:25:07;3.97;;;0.90;;
13108;SDS011;6620;53.734;11.510;2022-07-29T15:27:33;6.00;;;1.27;;
13108;SDS011;6620;53.734;11.510;2022-07-29T15:29:58;4.63;;;0.93;;
13108;SDS011;6620;53.734;11.510;2022-07-29T15:32:23;1.83;;;0.80;;
13108;SDS011;6620;53.734;11.510;2022-07-29T15:34:48;2.47;;;0.87;;
13108;SDS011;6620;53.734;11.510;2022-07-29T15:37:13;3.55;;;1.00;;
13108;SDS011;6620;53.734;11.510;2022-07-29T15:39:39;1.70;;;0.73;;
13108;SDS011;6620;53.734;11.510;2022-07-29T15:42:04;2.65;;;0.90;;